sensor_id;sensor_type;location;lat;lon;timestamp;pressure;altitude;pressure_sealevel;temperature;humidity
49044;BME280;34860;48.066;14.124;2024-01-27T00:01:28;97988.09;;;5.09;72.00
49044;BME280;34860;48.066;14.124;2024-01-27T00:04:17;97992.44;;;5.11;72.00
49044;BME280;34860;48.066;14.124;2024-01-27T00:07:06;97986.47;;;5.08;71.96
49044;BME280;34860;48.066;14.124;2024-01-27T00:09:55;98000.25;;;5.08;72.02
49044;BME280;34860;48.066;14.124;2024-01-27T00:12:48;97997.88;;;5.07;71.95
49044;BME280;34860;48.066;14.124;2024-01-27T00:15:37;98002.66;;;5.10;71.98
49044;BME280;34860;48.066;14.124;2024-01-27T00:18:26;98014.50;;;5.11;72.03
49044;BME280;34860;48.066;14.124;2024-01-27T00:21:15;98026.59;;;5.06;72.07
49044;BME280;34860;48.066;14.124;2024-01-27T00:24:05;98019.06;;;5.03;72.30
49044;BME280;34860;48.066;14.124;2024-01-27T00:26:54;98015.09;;;5.00;71.94
49044;BME280;34860;48.066;14.124;2024-01-27T00:29:46;98007.19;;;4.99;72.17
49044;BME280;34860;48.066;14.124;2024-01-27T00:32:35;98020.53;;;4.97;72.22
49044;BME280;34860;48.066;14.124;2024-01-27T00:35:24;98023.22;;;4.93;72.31
49044;BME280;34860;48.066;14.124;2024-01-27T00:38:13;98010.25;;;4.94;72.17
49044;BME280;34860;48.066;14.124;2024-01-27T00:41:03;98015.38;;;4.95;72.15
49044;BME280;34860;48.066;14.124;2024-01-27T00:43:52;98011.41;;;4.93;72.24
49044;BME280;34860;48.066;14.124;2024-01-27T00:46:43;98012.94;;;4.90;72.17
49044;BME280;34860;48.066;14.124;2024-01-27T00:49:32;98019.97;;;4.87;72.10
49044;BME280;34860;48.066;14.124;2024-01-27T00:52:21;98024.19;;;4.81;72.26
49044;BME280;34860;48.066;14.124;2024-01-27T00:55:10;98017.47;;;4.79;72.17
49044;BME280;34860;48.066;14.124;2024-01-27T00:57:59;98024.91;;;4.78;72.33
49044;BME280;34860;48.066;14.124;2024-01-27T01:00:49;98019.34;;;4.75;72.15
49044;BME280;34860;48.066;14.124;2024-01-27T01:03:40;98020.50;;;4.73;72.25
49044;BME280;34860;48.066;14.124;2024-01-27T01:06:29;98023.56;;;4.68;72.23
49044;BME280;34860;48.066;14.124;2024-01-27T01:09:19;98013.69;;;4.67;72.24
49044;BME280;34860;48.066;14.124;2024-01-27T01:12:08;98018.41;;;4.67;72.21
49044;BME280;34860;48.066;14.124;2024-01-27T01:14:57;98028.63;;;4.66;72.38
49044;BME280;34860;48.066;14.124;2024-01-27T01:17:46;98031.38;;;4.66;72.20
49044;BME280;34860;48.066;14.124;2024-01-27T01:20:37;98021.47;;;4.62;72.05
49044;BME280;34860;48.066;14.124;2024-01-27T01:23:26;98022.56;;;4.57;72.19
49044;BME280;34860;48.066;14.124;2024-01-27T01:26:16;98038.72;;;4.59;72.17
49044;BME280;34860;48.066;14.124;2024-01-27T01:29:05;98042.97;;;4.56;72.07
49044;BME280;34860;48.066;14.124;2024-01-27T01:31:54;98043.34;;;4.54;72.08
49044;BME280;34860;48.066;14.124;2024-01-27T01:34:45;98038.19;;;4.53;72.09
49044;BME280;34860;48.066;14.124;2024-01-27T01:37:37;98043.69;;;4.53;71.87
49044;BME280;34860;48.066;14.124;2024-01-27T01:40:26;98033.41;;;4.50;72.05
49044;BME280;34860;48.066;14.124;2024-01-27T01:43:15;98031.06;;;4.48;72.11
49044;BME280;34860;48.066;14.124;2024-01-27T01:46:05;98039.31;;;4.48;72.09
49044;BME280;34860;48.066;14.124;2024-01-27T01:48:54;98036.47;;;4.45;71.89
49044;BME280;34860;48.066;14.124;2024-01-27T01:51:44;98049.06;;;4.46;71.92
49044;BME280;34860;48.066;14.124;2024-01-27T01:54:35;98053.06;;;4.48;71.87
49044;BME280;34860;48.066;14.124;2024-01-27T01:57:24;98059.72;;;4.47;71.85
49044;BME280;34860;48.066;14.124;2024-01-27T02:00:14;98054.59;;;4.46;71.83
49044;BME280;34860;48.066;14.124;2024-01-27T02:03:04;98057.34;;;4.46;71.85
49044;BME280;34860;48.066;14.124;2024-01-27T02:05:54;98057.28;;;4.42;71.75
49044;BME280;34860;48.066;14.124;2024-01-27T02:08:43;98075.00;;;4.45;71.90
49044;BME280;34860;48.066;14.124;2024-01-27T02:11:34;98064.34;;;4.43;71.83
49044;BME280;34860;48.066;14.124;2024-01-27T02:14:24;98068.28;;;4.42;71.77
49044;BME280;34860;48.066;14.124;2024-01-27T02:17:14;98057.63;;;4.41;71.63
49044;BME280;34860;48.066;14.124;2024-01-27T02:20:05;98065.06;;;4.40;71.79
49044;BME280;34860;48.066;14.124;2024-01-27T02:22:54;98057.63;;;4.41;71.70
49044;BME280;34860;48.066;14.124;2024-01-27T02:25:45;98057.16;;;4.39;71.68
49044;BME280;34860;48.066;14.124;2024-01-27T02:28:34;98062.59;;;4.35;71.58
49044;BME280;34860;48.066;14.124;2024-01-27T02:31:23;98058.25;;;4.34;71.74
49044;BME280;34860;48.066;14.124;2024-01-27T02:34:12;98062.25;;;4.36;71.65
49044;BME280;34860;48.066;14.124;2024-01-27T02:37:02;98066.16;;;4.35;71.58
49044;BME280;34860;48.066;14.124;2024-01-27T02:39:51;98065.00;;;4.36;71.61
49044;BME280;34860;48.066;14.124;2024-01-27T02:42:42;98058.72;;;4.36;71.57
49044;BME280;34860;48.066;14.124;2024-01-27T02:45:31;98062.25;;;4.36;71.62
49044;BME280;34860;48.066;14.124;2024-01-27T02:48:20;98062.19;;;4.33;71.63
49044;BME280;34860;48.066;14.124;2024-01-27T02:51:09;98066.91;;;4.32;71.63
49044;BME280;34860;48.066;14.124;2024-01-27T02:53:59;98075.50;;;4.31;71.73
49044;BME280;34860;48.066;14.124;2024-01-27T02:56:48;98073.47;;;4.28;71.69
49044;BME280;34860;48.066;14.124;2024-01-27T02:59:39;98086.78;;;4.26;71.79
49044;BME280;34860;48.066;14.124;2024-01-27T03:02:28;98098.59;;;4.26;71.78
49044;BME280;34860;48.066;14.124;2024-01-27T03:05:17;98098.59;;;4.26;71.65
49044;BME280;34860;48.066;14.124;2024-01-27T03:08:07;98098.97;;;4.25;71.87
49044;BME280;34860;48.066;14.124;2024-01-27T03:10:56;98102.88;;;4.24;71.83
49044;BME280;34860;48.066;14.124;2024-01-27T03:13:45;98100.47;;;4.22;71.99
49044;BME280;34860;48.066;14.124;2024-01-27T03:16:36;98101.25;;;4.23;71.56
49044;BME280;34860;48.066;14.124;2024-01-27T03:19:25;98107.59;;;4.23;71.63
49044;BME280;34860;48.066;14.124;2024-01-27T03:22:14;98102.78;;;4.20;71.66
49044;BME280;34860;48.066;14.124;2024-01-27T03:25:04;98104.31;;;4.17;71.54
49044;BME280;34860;48.066;14.124;2024-01-27T03:27:54;98083.81;;;4.15;71.60
49044;BME280;34860;48.066;14.124;2024-01-27T03:30:43;98100.75;;;4.17;71.53
49044;BME280;34860;48.066;14.124;2024-01-27T03:33:34;98094.47;;;4.16;71.55
49044;BME280;34860;48.066;14.124;2024-01-27T03:36:23;98101.53;;;4.17;71.43
49044;BME280;34860;48.066;14.124;2024-01-27T03:39:12;98099.16;;;4.16;71.36
49044;BME280;34860;48.066;14.124;2024-01-27T03:42:01;98094.38;;;4.13;71.47
49044;BME280;34860;48.066;14.124;2024-01-27T03:44:51;98109.31;;;4.12;71.46
49044;BME280;34860;48.066;14.124;2024-01-27T03:47:40;98095.09;;;4.10;71.52
49044;BME280;34860;48.066;14.124;2024-01-27T03:50:30;98111.16;;;4.08;71.46
49044;BME280;34860;48.066;14.124;2024-01-27T03:53:19;98115.88;;;4.07;71.58
49044;BME280;34860;48.066;14.124;2024-01-27T03:56:11;98122.44;;;4.03;71.56
49044;BME280;34860;48.066;14.124;2024-01-27T03:59:00;98110.56;;;3.98;71.51
49044;BME280;34860;48.066;14.124;2024-01-27T04:01:51;98106.22;;;3.97;71.49
49044;BME280;34860;48.066;14.124;2024-01-27T04:04:40;98123.09;;;3.96;71.33
49044;BME280;34860;48.066;14.124;2024-01-27T04:07:31;98120.34;;;3.96;71.40
49044;BME280;34860;48.066;14.124;2024-01-27T04:10:20;98130.88;;;3.94;71.34
49044;BME280;34860;48.066;14.124;2024-01-27T04:13:09;98132.41;;;3.91;71.37
49044;BME280;34860;48.066;14.124;2024-01-27T04:15:59;98135.03;;;3.88;71.47
49044;BME280;34860;48.066;14.124;2024-01-27T04:18:48;98137.34;;;3.86;71.38
49044;BME280;34860;48.066;14.124;2024-01-27T04:21:38;98130.28;;;3.85;71.53
49044;BME280;34860;48.066;14.124;2024-01-27T04:24:28;98130.19;;;3.81;71.45
49044;BME280;34860;48.066;14.124;2024-01-27T04:27:17;98139.13;;;3.78;71.37
49044;BME280;34860;48.066;14.124;2024-01-27T04:30:07;98149.69;;;3.76;71.37
49044;BME280;34860;48.066;14.124;2024-01-27T04:32:57;98164.16;;;3.73;71.50
49044;BME280;34860;48.066;14.124;2024-01-27T04:35:46;98166.47;;;3.71;71.46
49044;BME280;34860;48.066;14.124;2024-01-27T04:38:35;98171.97;;;3.71;71.55
49044;BME280;34860;48.066;14.124;2024-01-27T04:41:26;98184.09;;;3.70;71.50
49044;BME280;34860;48.066;14.124;2024-01-27T04:44:15;98178.97;;;3.68;71.29
49044;BME280;34860;48.066;14.124;2024-01-27T04:47:07;98178.53;;;3.66;71.50
49044;BME280;34860;48.066;14.124;2024-01-27T04:49:57;98179.31;;;3.67;71.17
49044;BME280;34860;48.066;14.124;2024-01-27T04:52:46;98183.31;;;3.69;71.17
49044;BME280;34860;48.066;14.124;2024-01-27T04:55:36;98187.22;;;3.68;71.38
49044;BME280;34860;48.066;14.124;2024-01-27T04:58:27;98188.72;;;3.66;71.26
49044;BME280;34860;48.066;14.124;2024-01-27T05:01:16;98194.13;;;3.62;71.30
49044;BME280;34860;48.066;14.124;2024-01-27T05:04:06;98205.03;;;3.58;71.33
49044;BME280;34860;48.066;14.124;2024-01-27T05:06:55;98201.06;;;3.56;71.38
49044;BME280;34860;48.066;14.124;2024-01-27T05:09:44;98206.09;;;3.54;71.54
49044;BME280;34860;48.066;14.124;2024-01-27T05:12:33;98214.78;;;3.56;71.44
49044;BME280;34860;48.066;14.124;2024-01-27T05:15:24;98211.94;;;3.52;71.40
49044;BME280;34860;48.066;14.124;2024-01-27T05:18:13;98211.94;;;3.52;71.35
49044;BME280;34860;48.066;14.124;2024-01-27T05:21:02;98224.09;;;3.51;71.33
49044;BME280;34860;48.066;14.124;2024-01-27T05:23:51;98226.84;;;3.51;71.39
49044;BME280;34860;48.066;14.124;2024-01-27T05:26:42;98227.63;;;3.52;71.25
49044;BME280;34860;48.066;14.124;2024-01-27T05:29:31;98221.69;;;3.50;71.21
49044;BME280;34860;48.066;14.124;2024-01-27T05:32:22;98239.31;;;3.49;71.37
49044;BME280;34860;48.066;14.124;2024-01-27T05:35:11;98236.13;;;3.47;71.48
49044;BME280;34860;48.066;14.124;2024-01-27T05:38:00;98235.66;;;3.44;71.36
49044;BME280;34860;48.066;14.124;2024-01-27T05:40:50;98239.59;;;3.43;71.31
49044;BME280;34860;48.066;14.124;2024-01-27T05:43:39;98251.28;;;3.40;71.48
49044;BME280;34860;48.066;14.124;2024-01-27T05:46:28;98258.72;;;3.40;71.67
49044;BME280;34860;48.066;14.124;2024-01-27T05:49:18;98250.03;;;3.38;71.40
49044;BME280;34860;48.066;14.124;2024-01-27T05:52:07;98261.00;;;3.38;71.38
49044;BME280;34860;48.066;14.124;2024-01-27T05:54:57;98267.22;;;3.35;71.49
49044;BME280;34860;48.066;14.124;2024-01-27T05:57:46;98265.97;;;3.32;71.57
49044;BME280;34860;48.066;14.124;2024-01-27T06:00:35;98267.13;;;3.31;71.50
49044;BME280;34860;48.066;14.124;2024-01-27T06:03:25;98258.69;;;3.24;71.35
49044;BME280;34860;48.066;14.124;2024-01-27T06:06:16;98260.50;;;3.20;71.62
49044;BME280;34860;48.066;14.124;2024-01-27T06:09:05;98263.16;;;3.16;71.63
49044;BME280;34860;48.066;14.124;2024-01-27T06:11:59;98260.19;;;3.09;71.75
49044;BME280;34860;48.066;14.124;2024-01-27T06:14:48;98264.00;;;3.04;71.76
49044;BME280;34860;48.066;14.124;2024-01-27T06:17:37;98261.50;;;2.99;71.81
49044;BME280;34860;48.066;14.124;2024-01-27T06:20:26;98267.66;;;2.96;71.94
49044;BME280;34860;48.066;14.124;2024-01-27T06:23:17;98262.78;;;2.89;71.85
49044;BME280;34860;48.066;14.124;2024-01-27T06:26:08;98269.31;;;2.85;71.96
49044;BME280;34860;48.066;14.124;2024-01-27T06:28:57;98276.97;;;2.79;72.08
49044;BME280;34860;48.066;14.124;2024-01-27T06:31:47;98271.72;;;2.74;72.10
49044;BME280;34860;48.066;14.124;2024-01-27T06:34:36;98282.59;;;2.70;72.11
49044;BME280;34860;48.066;14.124;2024-01-27T06:37:26;98280.09;;;2.65;72.19
49044;BME280;34860;48.066;14.124;2024-01-27T06:40:17;98282.00;;;2.65;72.34
49044;BME280;34860;48.066;14.124;2024-01-27T06:43:06;98283.19;;;2.64;72.13
49044;BME280;34860;48.066;14.124;2024-01-27T06:45:55;98280.31;;;2.60;72.11
49044;BME280;34860;48.066;14.124;2024-01-27T06:48:45;98283.28;;;2.55;72.15
49044;BME280;34860;48.066;14.124;2024-01-27T06:51:34;98293.03;;;2.52;72.19
49044;BME280;34860;48.066;14.124;2024-01-27T06:54:23;98290.97;;;2.49;72.05
49044;BME280;34860;48.066;14.124;2024-01-27T06:57:19;98286.59;;;2.48;72.11
49044;BME280;34860;48.066;14.124;2024-01-27T07:00:09;98299.66;;;2.51;72.08
49044;BME280;34860;48.066;14.124;2024-01-27T07:03:02;98303.06;;;2.48;71.84
49044;BME280;34860;48.066;14.124;2024-01-27T07:05:52;98310.63;;;2.51;72.01
49044;BME280;34860;48.066;14.124;2024-01-27T07:08:41;98303.88;;;2.49;71.89
49044;BME280;34860;48.066;14.124;2024-01-27T07:11:30;98310.97;;;2.50;71.82
49044;BME280;34860;48.066;14.124;2024-01-27T07:14:22;98316.56;;;2.53;71.89
49044;BME280;34860;48.066;14.124;2024-01-27T07:17:11;98315.44;;;2.54;71.91
49044;BME280;34860;48.066;14.124;2024-01-27T07:20:00;98317.03;;;2.56;71.82
49044;BME280;34860;48.066;14.124;2024-01-27T07:22:49;98322.03;;;2.53;71.84
49044;BME280;34860;48.066;14.124;2024-01-27T07:25:38;98328.69;;;2.52;71.89
49044;BME280;34860;48.066;14.124;2024-01-27T07:28:28;98332.56;;;2.51;71.91
49044;BME280;34860;48.066;14.124;2024-01-27T07:31:19;98332.22;;;2.53;72.02
49044;BME280;34860;48.066;14.124;2024-01-27T07:34:08;98325.72;;;2.58;71.64
49044;BME280;34860;48.066;14.124;2024-01-27T07:36:57;98328.56;;;2.61;72.03
49044;BME280;34860;48.066;14.124;2024-01-27T07:39:47;98327.44;;;2.62;71.88
49044;BME280;34860;48.066;14.124;2024-01-27T07:42:37;98338.19;;;2.67;71.77
49044;BME280;34860;48.066;14.124;2024-01-27T07:45:26;98329.50;;;2.65;71.84
49044;BME280;34860;48.066;14.124;2024-01-27T07:48:17;98346.31;;;2.64;71.91
49044;BME280;34860;48.066;14.124;2024-01-27T07:51:07;98348.94;;;2.60;72.03
49044;BME280;34860;48.066;14.124;2024-01-27T07:53:56;98356.03;;;2.61;71.96
49044;BME280;34860;48.066;14.124;2024-01-27T07:56:45;98352.50;;;2.73;72.11
49044;BME280;34860;48.066;14.124;2024-01-27T07:59:34;98356.81;;;2.86;71.93
49044;BME280;34860;48.066;14.124;2024-01-27T08:02:23;98362.06;;;2.91;72.12
49044;BME280;34860;48.066;14.124;2024-01-27T08:05:15;98357.94;;;3.10;72.17
49044;BME280;34860;48.066;14.124;2024-01-27T08:08:06;98353.56;;;3.34;72.11
49044;BME280;34860;48.066;14.124;2024-01-27T08:10:55;98356.59;;;3.44;72.35
49044;BME280;34860;48.066;14.124;2024-01-27T08:13:45;98356.03;;;3.51;72.33
49044;BME280;34860;48.066;14.124;2024-01-27T08:16:34;98341.03;;;3.49;72.17
49044;BME280;34860;48.066;14.124;2024-01-27T08:19:23;98341.97;;;3.40;72.20
49044;BME280;34860;48.066;14.124;2024-01-27T08:22:14;98339.13;;;3.37;72.17
49044;BME280;34860;48.066;14.124;2024-01-27T08:25:04;98343.94;;;3.40;72.02
49044;BME280;34860;48.066;14.124;2024-01-27T08:27:53;98354.31;;;3.47;71.88
49044;BME280;34860;48.066;14.124;2024-01-27T08:30:42;98364.81;;;3.57;71.65
49044;BME280;34860;48.066;14.124;2024-01-27T08:33:32;98372.13;;;3.65;71.91
49044;BME280;34860;48.066;14.124;2024-01-27T08:36:21;98366.00;;;3.72;72.03
49044;BME280;34860;48.066;14.124;2024-01-27T08:39:12;98356.84;;;3.80;71.95
49044;BME280;34860;48.066;14.124;2024-01-27T08:42:02;98366.44;;;3.86;71.87
49044;BME280;34860;48.066;14.124;2024-01-27T08:44:51;98368.47;;;3.89;71.86
49044;BME280;34860;48.066;14.124;2024-01-27T08:47:40;98373.53;;;3.87;71.84
49044;BME280;34860;48.066;14.124;2024-01-27T08:50:30;98377.31;;;3.82;71.93
49044;BME280;34860;48.066;14.124;2024-01-27T08:53:19;98374.13;;;3.80;72.01
49044;BME280;34860;48.066;14.124;2024-01-27T08:56:10;98378.59;;;3.85;71.96
49044;BME280;34860;48.066;14.124;2024-01-27T08:59:01;98376.22;;;3.99;71.70
49044;BME280;34860;48.066;14.124;2024-01-27T09:01:50;98378.63;;;4.01;71.72
49044;BME280;34860;48.066;14.124;2024-01-27T09:04:40;98390.78;;;4.00;71.98
49044;BME280;34860;48.066;14.124;2024-01-27T09:07:29;98382.25;;;4.05;71.80
49044;BME280;34860;48.066;14.124;2024-01-27T09:10:18;98388.59;;;4.06;71.81
49044;BME280;34860;48.066;14.124;2024-01-27T09:13:09;98384.44;;;4.12;71.34
49044;BME280;34860;48.066;14.124;2024-01-27T09:15:58;98386.22;;;4.20;71.57
49044;BME280;34860;48.066;14.124;2024-01-27T09:18:47;98387.44;;;4.23;71.18
49044;BME280;34860;48.066;14.124;2024-01-27T09:21:37;98396.06;;;4.21;71.17
49044;BME280;34860;48.066;14.124;2024-01-27T09:24:28;98392.16;;;4.22;70.93
49044;BME280;34860;48.066;14.124;2024-01-27T09:27:17;98391.38;;;4.22;70.69
49044;BME280;34860;48.066;14.124;2024-01-27T09:30:10;98389.97;;;4.28;70.69
49044;BME280;34860;48.066;14.124;2024-01-27T09:33:00;98399.00;;;4.28;70.71
49044;BME280;34860;48.066;14.124;2024-01-27T09:35:49;98390.50;;;4.33;70.51
49044;BME280;34860;48.066;14.124;2024-01-27T09:38:39;98394.16;;;4.38;70.35
49044;BME280;34860;48.066;14.124;2024-01-27T09:41:30;98394.25;;;4.41;70.42
49044;BME280;34860;48.066;14.124;2024-01-27T09:44:20;98390.88;;;4.48;70.12
49044;BME280;34860;48.066;14.124;2024-01-27T09:47:11;98380.75;;;4.52;69.98
49044;BME280;34860;48.066;14.124;2024-01-27T09:50:01;98384.84;;;4.58;69.81
49044;BME280;34860;48.066;14.124;2024-01-27T09:52:50;98382.44;;;4.57;69.68
49044;BME280;34860;48.066;14.124;2024-01-27T09:55:40;98386.34;;;4.55;69.70
49044;BME280;34860;48.066;14.124;2024-01-27T09:58:30;98383.16;;;4.69;69.54
49044;BME280;34860;48.066;14.124;2024-01-27T10:01:20;98381.53;;;4.84;69.34
49044;BME280;34860;48.066;14.124;2024-01-27T10:04:11;98379.41;;;4.94;69.12
49044;BME280;34860;48.066;14.124;2024-01-27T10:07:01;98383.78;;;4.95;68.99
49044;BME280;34860;48.066;14.124;2024-01-27T10:09:51;98385.44;;;4.99;69.01
49044;BME280;34860;48.066;14.124;2024-01-27T10:12:41;98370.16;;;4.86;69.07
49044;BME280;34860;48.066;14.124;2024-01-27T10:15:30;98365.03;;;4.68;69.02
49044;BME280;34860;48.066;14.124;2024-01-27T10:18:20;98368.22;;;4.54;69.38
49044;BME280;34860;48.066;14.124;2024-01-27T10:21:15;98363.78;;;4.50;69.13
49044;BME280;34860;48.066;14.124;2024-01-27T10:24:04;98368.41;;;4.46;69.05
49044;BME280;34860;48.066;14.124;2024-01-27T10:26:59;98370.00;;;4.47;69.13
49044;BME280;34860;48.066;14.124;2024-01-27T10:29:52;98365.81;;;4.53;68.83
49044;BME280;34860;48.066;14.124;2024-01-27T10:32:42;98366.78;;;4.77;68.10
49044;BME280;34860;48.066;14.124;2024-01-27T10:35:31;98381.53;;;4.84;68.03
49044;BME280;34860;48.066;14.124;2024-01-27T10:38:22;98371.94;;;4.78;67.99
49044;BME280;34860;48.066;14.124;2024-01-27T10:41:22;98373.91;;;4.94;67.45
49044;BME280;34860;48.066;14.124;2024-01-27T10:44:15;98372.97;;;5.05;67.00
49044;BME280;34860;48.066;14.124;2024-01-27T10:47:05;98379.56;;;5.52;66.64
49044;BME280;34860;48.066;14.124;2024-01-27T10:49:56;98373.19;;;5.87;65.82
49044;BME280;34860;48.066;14.124;2024-01-27T10:52:46;98372.50;;;6.56;64.94
49044;BME280;34860;48.066;14.124;2024-01-27T10:55:39;98363.06;;;7.07;64.16
49044;BME280;34860;48.066;14.124;2024-01-27T10:58:30;98371.88;;;7.43;63.68
49044;BME280;34860;48.066;14.124;2024-01-27T11:01:20;98368.09;;;7.55;63.54
49044;BME280;34860;48.066;14.124;2024-01-27T11:04:12;98371.50;;;7.18;64.78
49044;BME280;34860;48.066;14.124;2024-01-27T11:07:03;98376.34;;;6.98;65.24
49044;BME280;34860;48.066;14.124;2024-01-27T11:09:52;98377.41;;;6.66;65.82
49044;BME280;34860;48.066;14.124;2024-01-27T11:12:43;98374.28;;;6.68;66.07
49044;BME280;34860;48.066;14.124;2024-01-27T11:15:33;98376.63;;;6.66;65.89
49044;BME280;34860;48.066;14.124;2024-01-27T11:18:22;98380.91;;;6.63;65.71
49044;BME280;34860;48.066;14.124;2024-01-27T11:21:14;98379.34;;;6.89;65.40
49044;BME280;34860;48.066;14.124;2024-01-27T11:24:13;98376.13;;;6.83;65.19
49044;BME280;34860;48.066;14.124;2024-01-27T11:27:03;98382.22;;;6.46;65.76
49044;BME280;34860;48.066;14.124;2024-01-27T11:29:55;98371.94;;;6.04;66.36
49044;BME280;34860;48.066;14.124;2024-01-27T11:32:45;98373.31;;;5.75;66.53
49044;BME280;34860;48.066;14.124;2024-01-27T11:35:34;98383.16;;;5.56;66.83
49044;BME280;34860;48.066;14.124;2024-01-27T11:38:23;98385.31;;;5.47;67.00
49044;BME280;34860;48.066;14.124;2024-01-27T11:41:12;98389.97;;;5.43;67.00
49044;BME280;34860;48.066;14.124;2024-01-27T11:44:01;98382.34;;;5.36;66.90
49044;BME280;34860;48.066;14.124;2024-01-27T11:46:53;98379.97;;;5.35;66.73
49044;BME280;34860;48.066;14.124;2024-01-27T11:49:43;98380.16;;;5.26;66.62
49044;BME280;34860;48.066;14.124;2024-01-27T11:52:32;98383.25;;;5.24;66.61
49044;BME280;34860;48.066;14.124;2024-01-27T11:55:22;98393.22;;;5.29;66.46
49044;BME280;34860;48.066;14.124;2024-01-27T11:58:11;98400.94;;;5.39;66.21
49044;BME280;34860;48.066;14.124;2024-01-27T12:01:00;98388.53;;;5.49;65.95
49044;BME280;34860;48.066;14.124;2024-01-27T12:03:51;98382.78;;;5.38;66.01
49044;BME280;34860;48.066;14.124;2024-01-27T12:06:41;98393.28;;;5.33;66.03
49044;BME280;34860;48.066;14.124;2024-01-27T12:09:30;98401.28;;;5.38;66.28
49044;BME280;34860;48.066;14.124;2024-01-27T12:12:19;98401.09;;;5.46;66.17
49044;BME280;34860;48.066;14.124;2024-01-27T12:15:09;98394.31;;;5.44;66.08
49044;BME280;34860;48.066;14.124;2024-01-27T12:17:58;98387.59;;;5.41;66.08
49044;BME280;34860;48.066;14.124;2024-01-27T12:20:54;98393.47;;;5.40;66.16
49044;BME280;34860;48.066;14.124;2024-01-27T12:23:51;98387.66;;;5.45;66.08
49044;BME280;34860;48.066;14.124;2024-01-27T12:26:40;98381.06;;;5.50;66.08
49044;BME280;34860;48.066;14.124;2024-01-27T12:29:30;98396.41;;;5.67;65.87
49044;BME280;34860;48.066;14.124;2024-01-27T12:32:19;98390.88;;;5.67;65.66
49044;BME280;34860;48.066;14.124;2024-01-27T12:35:08;98395.16;;;5.64;65.67
49044;BME280;34860;48.066;14.124;2024-01-27T12:38:01;98397.13;;;5.63;65.91
49044;BME280;34860;48.066;14.124;2024-01-27T12:40:51;98397.91;;;5.83;65.35
49044;BME280;34860;48.066;14.124;2024-01-27T12:43:40;98384.78;;;5.77;65.22
49044;BME280;34860;48.066;14.124;2024-01-27T12:46:29;98376.00;;;5.71;65.50
49044;BME280;34860;48.066;14.124;2024-01-27T12:49:19;98386.75;;;5.57;65.78
49044;BME280;34860;48.066;14.124;2024-01-27T12:52:08;98390.06;;;5.46;66.04
49044;BME280;34860;48.066;14.124;2024-01-27T12:54:59;98381.88;;;5.70;65.78
49044;BME280;34860;48.066;14.124;2024-01-27T12:57:48;98381.00;;;6.05;65.17
49044;BME280;34860;48.066;14.124;2024-01-27T13:00:37;98379.34;;;6.20;64.53
49044;BME280;34860;48.066;14.124;2024-01-27T13:03:26;98371.78;;;6.16;64.79
49044;BME280;34860;48.066;14.124;2024-01-27T13:06:16;98374.50;;;6.13;64.76
49044;BME280;34860;48.066;14.124;2024-01-27T13:09:06;98373.19;;;5.87;65.18
49044;BME280;34860;48.066;14.124;2024-01-27T13:12:00;98370.06;;;6.08;65.13
49044;BME280;34860;48.066;14.124;2024-01-27T13:14:49;98367.78;;;5.94;65.20
49044;BME280;34860;48.066;14.124;2024-01-27T13:17:39;98365.13;;;5.98;65.03
49044;BME280;34860;48.066;14.124;2024-01-27T13:20:28;98370.59;;;6.37;64.12
49044;BME280;34860;48.066;14.124;2024-01-27T13:23:17;98373.56;;;6.28;64.23
49044;BME280;34860;48.066;14.124;2024-01-27T13:26:06;98363.44;;;7.05;62.93
49044;BME280;34860;48.066;14.124;2024-01-27T13:29:01;98351.91;;;7.57;61.24
49044;BME280;34860;48.066;14.124;2024-01-27T13:31:50;98361.50;;;7.09;62.07
49044;BME280;34860;48.066;14.124;2024-01-27T13:34:39;98344.50;;;7.07;62.13
49044;BME280;34860;48.066;14.124;2024-01-27T13:37:28;98350.41;;;7.63;61.08
49044;BME280;34860;48.066;14.124;2024-01-27T13:40:21;98347.28;;;8.02;59.59
49044;BME280;34860;48.066;14.124;2024-01-27T13:43:12;98347.44;;;7.18;61.36
49044;BME280;34860;48.066;14.124;2024-01-27T13:46:02;98334.81;;;7.51;61.64
49044;BME280;34860;48.066;14.124;2024-01-27T13:48:52;98342.09;;;7.63;60.51
49044;BME280;34860;48.066;14.124;2024-01-27T13:51:42;98333.09;;;6.86;62.24
49044;BME280;34860;48.066;14.124;2024-01-27T13:54:31;98326.91;;;6.20;63.46
49044;BME280;34860;48.066;14.124;2024-01-27T13:57:22;98328.88;;;5.80;64.32
49044;BME280;34860;48.066;14.124;2024-01-27T14:00:12;98323.44;;;5.64;64.57
49044;BME280;34860;48.066;14.124;2024-01-27T14:03:05;98315.75;;;5.54;64.77
49044;BME280;34860;48.066;14.124;2024-01-27T14:05:54;98324.66;;;5.47;64.76
49044;BME280;34860;48.066;14.124;2024-01-27T14:08:43;98330.84;;;5.40;64.67
49044;BME280;34860;48.066;14.124;2024-01-27T14:11:32;98333.53;;;5.37;64.77
49044;BME280;34860;48.066;14.124;2024-01-27T14:14:22;98350.41;;;5.35;64.59
49044;BME280;34860;48.066;14.124;2024-01-27T14:17:11;98347.59;;;5.32;64.53
49044;BME280;34860;48.066;14.124;2024-01-27T14:20:02;98351.06;;;5.28;64.47
49044;BME280;34860;48.066;14.124;2024-01-27T14:22:52;98358.53;;;5.28;64.48
49044;BME280;34860;48.066;14.124;2024-01-27T14:25:41;98353.41;;;5.26;64.47
49044;BME280;34860;48.066;14.124;2024-01-27T14:28:32;98355.69;;;5.24;64.32
49044;BME280;34860;48.066;14.124;2024-01-27T14:31:22;98354.47;;;5.22;64.16
49044;BME280;34860;48.066;14.124;2024-01-27T14:34:11;98357.22;;;5.22;64.19
49044;BME280;34860;48.066;14.124;2024-01-27T14:37:03;98349.69;;;5.19;64.32
49044;BME280;34860;48.066;14.124;2024-01-27T14:39:53;98361.06;;;5.17;64.43
49044;BME280;34860;48.066;14.124;2024-01-27T14:42:43;98366.13;;;5.15;64.46
49044;BME280;34860;48.066;14.124;2024-01-27T14:45:34;98355.09;;;5.15;64.52
49044;BME280;34860;48.066;14.124;2024-01-27T14:48:24;98364.53;;;5.14;64.59
49044;BME280;34860;48.066;14.124;2024-01-27T14:51:14;98369.22;;;5.14;64.67
49044;BME280;34860;48.066;14.124;2024-01-27T14:54:05;98364.00;;;5.08;64.66
49044;BME280;34860;48.066;14.124;2024-01-27T14:56:54;98375.38;;;5.07;64.57
49044;BME280;34860;48.066;14.124;2024-01-27T14:59:43;98381.25;;;5.05;64.78